KCDA

Caledonia County Airport

Lyndonville, Vermont, USA
METAR KCDA 182215Z AUTO 13006KT 10SM SCT041 BKN055 BKN080 23/21 A2970 RMK AO2 T02280212
Observed Flight Rules
Jun-18 @ 22:15 UTC (16 minutes ago) Visual Flight Rules
Wind Visibility Clouds
130° at 6 knots 10 miles
  • Scattered at 4,100' AGL
  • Broken at 5,500' AGL
  • Broken at 8,000' AGL
Temperatures Readings
Current 23°C / 73°F
Dewpoint 21°C / 70°F
Humidity 89%
Altimeter 29.7" Hg
Pressure 1006 hPa
Elevation 363
METAR KCDA 182215Z AUTO 13006KT 10SM SCT041 BKN055 BKN080 23/21 A2970 RMK AO2 T02280212
Observed Flight Rules
Jun-18 @ 22:15 UTC
(16 minutes ago)
VFR
Wind Visibility
130° at 6 knots 10 miles
Clouds
  • Scattered at 4,100' AGL
  • Broken at 5,500' AGL
  • Broken at 8,000' AGL
Temperature Dewpoint
23°C / 73°F 21°C / 70°F
Humidity Altimeter Pressure
89% 29.7" Hg 1006 hPa